Time;durP1;ratioP1;P1;durP2;ratioP2;P2;SDS_P1;SDS_P2;PMS_P1;PMS_P2;Temp;Humidity;BMP_temperature;BMP_pressure;BME280_temperature;BME280_humidity;BME280_pressure;Samples;Min_cycle;Max_cycle;Signal;HPM_P1;HPM_P2
2022/07/29 00:07:00;;;;;;;2.05;0.52;;;;;;;;;;21155659;28;20198;-70
2022/07/29 00:17:02;;;;;;;1.63;0.73;;;;;;;;;;21154832;28;20213;-70
2022/07/29 00:27:03;;;;;;;0.95;0.50;;;;;;;;;;21154641;28;20225;-71
2022/07/29 00:37:05;;;;;;;1.00;0.40;;;;;;;;;;21118816;28;20229;-71
2022/07/29 00:47:07;;;;;;;1.48;0.60;;;;;;;;;;21134407;28;20565;-71
2022/07/29 00:57:09;;;;;;;0.52;0.40;;;;;;;;;;21134729;28;20683;-71
2022/07/29 01:07:17;;;;;;;1.27;0.38;;;24.00;88.40;;;;;;21134303;28;20217;-71
2022/07/29 01:17:39;;;;;;;0.52;0.40;;;;;;;;;;21152486;28;20226;-71
2022/07/29 01:27:44;;;;;;;1.42;0.43;;;;;;;;;;21075087;28;20280;-71
2022/07/29 01:37:51;;;;;;;2.67;0.52;;;23.80;91.30;;;;;;21152437;28;21118;-71
2022/07/29 01:48:04;;;;;;;2.20;0.63;;;23.70;79.80;;;;;;21131586;28;20234;-72
2022/07/29 01:58:07;;;;;;;3.17;0.68;;;23.60;86.60;;;;;;21150697;28;20224;-71
2022/07/29 02:08:11;;;;;;;0.60;0.50;;;;;;;;;;21165415;28;20209;-71
2022/07/29 02:18:19;;;;;;;1.15;0.50;;;;;;;;;;21146851;28;20594;-71
2022/07/29 02:28:25;;;;;;;2.38;0.73;;;23.20;92.00;;;;;;21162996;28;20648;-71
2022/07/29 02:49:08;;;;;;;2.78;0.50;;;;;;;;;;21145779;28;20211;-71
2022/07/29 02:59:13;;;;;;;3.03;0.60;;;23.00;93.90;;;;;;21160553;28;20763;-71
2022/07/29 03:09:15;;;;;;;1.20;0.40;;;;;;;;;;21139949;28;20209;-71
2022/07/29 03:19:17;;;;;;;2.05;0.70;;;;;;;;;;21141922;28;20220;-71
2022/07/29 03:29:20;;;;;;;1.35;0.60;;;;;;;;;;21158506;28;20301;-71
2022/07/29 03:39:25;;;;;;;2.78;0.60;;;22.70;93.70;;;;;;21156994;28;20222;-71
2022/07/29 03:49:27;;;;;;;1.13;0.40;;;;;;;;;;21138371;28;20219;-71
2022/07/29 03:59:31;;;;;;;1.63;0.60;;;22.50;88.80;;;;;;21144833;28;20295;-71
2022/07/29 04:09:34;;;;;;;1.88;0.63;;;;;;;;;;21156457;28;20211;-70
2022/07/29 04:19:35;;;;;;;3.58;0.60;;;;;;;;;;21128379;28;20215;-73
2022/07/29 04:29:38;;;;;;;2.38;0.50;;;;;;;;;;21075212;28;20210;-73
2022/07/29 04:39:40;;;;;;;3.78;0.60;;;;;;;;;;21091981;28;20273;-71
2022/07/29 04:49:41;;;;;;;1.70;0.68;;;;;;;;;;21133104;28;20263;-73
2022/07/29 04:59:43;;;;;;;3.80;0.65;;;;;;;;;;21147328;28;20236;-73
2022/07/29 05:09:45;;;;;;;3.50;0.80;;;;;;;;;;21149170;28;20249;-73
2022/07/29 05:19:47;;;;;;;0.65;0.47;;;;;;;;;;21150172;28;20262;-71
2022/07/29 05:29:49;;;;;;;1.30;0.60;;;;;;;;;;21131488;28;20253;-72
2022/07/29 05:39:50;;;;;;;1.27;0.70;;;;;;;;;;21148773;28;20257;-72
2022/07/29 05:49:52;;;;;;;4.00;0.80;;;;;;;;;;21157676;28;20615;-71
2022/07/29 05:59:55;;;;;;;1.55;0.60;;;;;;;;;;21140096;28;20267;-70
2022/07/29 06:09:57;;;;;;;1.30;0.60;;;;;;;;;;21086998;28;20860;-71
2022/07/29 06:19:58;;;;;;;3.42;1.10;;;;;;;;;;21083457;28;20279;-71
2022/07/29 06:30:01;;;;;;;0.93;0.60;;;;;;;;;;21122055;28;20277;-71
2022/07/29 06:50:24;;;;;;;2.00;1.15;;;;;;;;;;21152132;28;20666;-71
2022/07/29 07:00:26;;;;;;;1.65;0.70;;;;;;;;;;21131125;28;20251;-71
2022/07/29 07:10:27;;;;;;;2.35;0.70;;;;;;;;;;21108760;28;20384;-71
2022/07/29 07:20:29;;;;;;;2.70;0.90;;;;;;;;;;21107217;28;20764;-71
2022/07/29 07:30:31;;;;;;;1.42;0.77;;;;;;;;;;21156389;28;20216;-71
2022/07/29 07:40:33;;;;;;;4.43;1.00;;;23.90;93.80;;;;;;21156481;28;20288;-71
2022/07/29 07:50:35;;;;;;;1.52;0.90;;;;;;;;;;21156294;28;20207;-71
2022/07/29 08:00:37;;;;;;;2.42;0.80;;;;;;;;;;21155673;28;20694;-71
2022/07/29 08:10:55;;;;;;;1.60;0.80;;;;;;;;;;21156178;28;20245;-70
2022/07/29 08:20:57;;;;;;;2.63;0.90;;;;;;;;;;21153980;28;20280;-70
2022/07/29 08:30:58;;;;;;;2.15;1.02;;;;;;;;;;21153185;28;20518;-71
2022/07/29 08:41:01;;;;;;;2.17;0.98;;;;;;;;;;21152128;28;20214;-71
2022/07/29 08:51:03;;;;;;;3.03;0.88;;;;;;;;;;21151794;28;20183;-71
2022/07/29 09:01:05;;;;;;;1.40;0.90;;;;;;;;;;21152998;28;20217;-71
2022/07/29 09:11:07;;;;;;;1.45;0.75;;;;;;;;;;21164454;28;20178;-71
2022/07/29 09:31:35;;;;;;;2.03;1.00;;;26.60;94.20;;;;;;21168598;28;20212;-71
2022/07/29 09:41:48;;;;;;;1.17;0.85;;;;;;;;;;21147659;28;20211;-71
2022/07/29 09:51:59;;;;;;;1.00;0.60;;;;;;;;;;21148512;28;20216;-71
2022/07/29 10:02:01;;;;;;;2.53;1.02;;;;;;;;;;21164822;28;20247;-71
2022/07/29 10:12:16;;;;;;;1.05;0.70;;;26.20;92.50;;;;;;21164223;28;20205;-71
2022/07/29 10:22:18;;;;;;;1.75;0.80;;;;;;;;;;21144892;28;20207;-71
2022/07/29 10:32:31;;;;;;;4.10;0.88;;;;;;;;;;21162811;28;20202;-71
2022/07/29 10:42:40;;;;;;;1.77;0.95;;;;;;;;;;21161901;28;20205;-71
2022/07/29 10:52:52;;;;;;;4.75;1.02;;;;;;;;;;21144607;28;20557;-71
2022/07/29 11:03:42;;;;;;;1.60;0.90;;;27.00;93.20;;;;;;21159833;28;20215;-71
2022/07/29 11:13:46;;;;;;;1.50;0.68;;;;;;;;;;21159511;28;20220;-71
2022/07/29 11:23:47;;;;;;;1.55;0.75;;;;;;;;;;21159294;28;20218;-71
2022/07/29 11:33:49;;;;;;;1.42;0.90;;;;;;;;;;21156024;28;20224;-71
2022/07/29 11:43:58;;;;;;;1.35;0.90;;;28.60;88.60;;;;;;21138626;28;20279;-71
2022/07/29 11:54:00;;;;;;;1.23;0.77;;;;;;;;;;21157492;28;20223;-71
2022/07/29 12:04:08;;;;;;;1.33;0.93;;;;;;;;;;20973748;28;21099;-71
2022/07/29 12:14:24;;;;;;;1.33;0.90;;;;;;;;;;20971876;28;20602;-71
2022/07/29 12:24:26;;;;;;;1.45;0.90;;;;;;;;;;20972757;28;20212;-71
2022/07/29 12:34:29;;;;;;;2.20;0.80;;;27.70;88.30;;;;;;20911529;22;20254;-70
2022/07/29 12:44:47;;;;;;;2.88;0.90;;;27.60;86.70;;;;;;20871260;28;20578;-70
2022/07/29 12:54:49;;;;;;;1.08;0.80;;;;;;;;;;20863855;28;20768;-70
2022/07/29 13:04:58;;;;;;;1.80;0.90;;;;;;;;;;20881240;28;20263;-70
2022/07/29 13:15:00;;;;;;;3.08;0.63;;;;;;;;;;20830322;28;20204;-70
2022/07/29 13:25:02;;;;;;;2.65;1.00;;;;;;;;;;20828963;28;20209;-70
2022/07/29 13:35:07;;;;;;;0.65;0.50;;;;;;;;;;20823663;28;20596;-70
2022/07/29 13:45:10;;;;;;;2.00;0.63;;;28.50;75.30;;;;;;20819200;28;20262;-70
2022/07/29 13:55:12;;;;;;;1.35;0.63;;;;;;;;;;20817506;28;20237;-70
2022/07/29 14:05:14;;;;;;;1.10;0.65;;;;;;;;;;20815709;28;20268;-70
2022/07/29 14:15:15;;;;;;;1.70;0.70;;;;;;;;;;20816546;28;20303;-71
2022/07/29 14:25:17;;;;;;;0.93;0.60;;;;;;;;;;20809896;28;20260;-71
2022/07/29 14:35:19;;;;;;;1.90;0.70;;;;;;;;;;20813055;28;20276;-70
2022/07/29 14:45:21;;;;;;;3.05;0.60;;;;;;;;;;20793870;28;20895;-70
2022/07/29 14:55:22;;;;;;;3.50;0.60;;;;;;;;;;20812818;28;20296;-71
2022/07/29 15:05:24;;;;;;;2.78;0.55;;;;;;;;;;20814000;28;20203;-71
2022/07/29 15:15:26;;;;;;;0.93;0.50;;;;;;;;;;20820686;28;20554;-70
2022/07/29 15:25:28;;;;;;;1.10;0.55;;;;;;;;;;20821046;28;20709;-70
2022/07/29 15:35:30;;;;;;;1.20;0.50;;;;;;;;;;20820101;28;20217;-70
2022/07/29 15:45:36;;;;;;;1.20;0.50;;;;;;;;;;20817148;28;20214;-71
2022/07/29 15:55:37;;;;;;;0.88;0.55;;;;;;;;;;20816724;28;20223;-71
2022/07/29 16:05:39;;;;;;;4.47;0.75;;;;;;;;;;20799080;28;20214;-71
2022/07/29 16:15:41;;;;;;;3.47;0.50;;;;;;;;;;20817679;28;20640;-71
2022/07/29 16:25:43;;;;;;;1.08;0.50;;;;;;;;;;20817901;28;20233;-71
2022/07/29 16:35:45;;;;;;;16.45;1.80;;;;;;;;;;20815735;28;20230;-71
2022/07/29 16:45:46;;;;;;;0.98;0.30;;;;;;;;;;20812229;28;20313;-72
2022/07/29 16:55:48;;;;;;;0.77;0.38;;;;;;;;;;20831594;28;20249;-69
2022/07/29 17:05:50;;;;;;;0.55;0.30;;;;;;;;;;20832149;28;20199;-74
2022/07/29 17:15:51;;;;;;;3.22;0.40;;;;;;;;;;20821587;28;20714;-74
2022/07/29 17:25:53;;;;;;;2.40;0.70;;;;;;;;;;20830450;28;20210;-73
2022/07/29 17:46:17;;;;;;;0.98;0.50;;;29.30;67.40;;;;;;20828734;28;20214;-73
2022/07/29 17:56:19;;;;;;;0.95;0.35;;;;;;;;;;20827252;28;20254;-70
2022/07/29 18:06:20;;;;;;;1.05;0.60;;;;;;;;;;20827056;28;20261;-70
2022/07/29 18:16:22;;;;;;;1.85;0.50;;;;;;;;;;20829998;28;20785;-75
2022/07/29 18:26:24;;;;;;;0.68;0.47;;;;;;;;;;20828076;28;20269;-70
2022/07/29 18:36:36;;;;;;;3.47;0.82;;;;;;;;;;20836289;22;20672;-76
2022/07/29 18:46:38;;;;;;;1.30;0.80;;;;;;;;;;20770253;28;20221;-73
2022/07/29 18:56:40;;;;;;;1.58;0.85;;;;;;;;;;20766333;28;20234;-74
2022/07/29 19:06:42;;;;;;;1.33;0.77;;;;;;;;;;20799803;28;20222;-73
2022/07/29 19:16:44;;;;;;;1.20;0.80;;;;;;;;;;20773921;28;20260;-73
2022/07/29 19:26:46;;;;;;;1.10;0.65;;;;;;;;;;20735674;28;20701;-73
2022/07/29 19:36:48;;;;;;;2.10;0.90;;;;;;;;;;20740104;28;20234;-73
2022/07/29 19:46:50;;;;;;;2.55;1.00;;;;;;;;;;20754928;28;20271;-73
2022/07/29 19:56:51;;;;;;;1.98;0.95;;;;;;;;;;20760802;28;20233;-73
2022/07/29 20:06:56;;;;;;;2.20;1.00;;;;;;;;;;20809053;28;20209;-74
2022/07/29 20:16:58;;;;;;;1.05;0.80;;;;;;;;;;20777469;28;20639;-73
2022/07/29 20:27:00;;;;;;;2.65;0.75;;;;;;;;;;20766686;28;20225;-74
2022/07/29 20:37:02;;;;;;;4.63;0.70;;;;;;;;;;20796682;28;20217;-73
2022/07/29 20:47:04;;;;;;;0.57;0.50;;;;;;;;;;20779932;28;20263;-74
2022/07/29 20:57:06;;;;;;;0.77;0.65;;;;;;;;;;20826243;28;20266;-73
2022/07/29 21:07:08;;;;;;;1.70;0.80;;;;;;;;;;20777878;28;20272;-73
2022/07/29 21:17:10;;;;;;;1.48;0.70;;;;;;;;;;20776687;28;20286;-74
2022/07/29 21:37:32;;;;;;;1.40;0.80;;;;;;;;;;20800600;28;20277;-73
2022/07/29 21:47:34;;;;;;;1.00;0.65;;;;;;;;;;20780583;28;20256;-73
2022/07/29 21:57:35;;;;;;;1.83;0.95;;;;;;;;;;20797982;28;20715;-73
2022/07/29 22:07:37;;;;;;;1.33;0.80;;;;;;;;;;20775892;28;20295;-73
2022/07/29 22:17:39;;;;;;;2.20;0.80;;;;;;;;;;20779536;28;20225;-74
2022/07/29 22:27:41;;;;;;;3.03;1.15;;;;;;;;;;20775398;28;20217;-74
2022/07/29 22:37:46;;;;;;;3.60;0.80;;;;;;;;;;20794497;28;20371;-73
2022/07/29 22:47:48;;;;;;;2.03;0.85;;;;;;;;;;20793840;28;20221;-74
2022/07/29 22:57:50;;;;;;;1.60;0.77;;;;;;;;;;20793559;28;20222;-74
2022/07/29 23:07:51;;;;;;;2.53;0.70;;;;;;;;;;20776717;28;20214;-74
2022/07/29 23:17:53;;;;;;;0.98;0.68;;;;;;;;;;20792160;28;20281;-74
2022/07/29 23:27:55;;;;;;;1.10;0.60;;;;;;;;;;20725807;28;20360;-73
2022/07/29 23:37:57;;;;;;;1.00;0.60;;;;;;;;;;20709980;28;20602;-74
2022/07/29 23:48:02;;;;;;;0.98;0.45;;;;;;;;;;20709641;28;20280;-74
2022/07/29 23:58:04;;;;;;;1.48;0.63;;;;;;;;;;20789871;28;20210;-73
